createdAt,value
2017-06-22T00:00:26.894Z,47.05
2017-06-22T00:01:28.715Z,46.67
2017-06-22T00:02:30.537Z,47.05
2017-06-22T00:03:32.414Z,46.86
2017-06-22T00:04:34.262Z,46.96
2017-06-22T00:05:36.115Z,47.03
2017-06-22T00:06:50.295Z,48.25
2017-06-22T00:07:52.172Z,48.16
2017-06-22T00:08:54.056Z,48.83
2017-06-22T00:09:55.936Z,48.64
2017-06-22T00:10:57.756Z,49.60
2017-06-22T00:11:59.547Z,49.41
2017-06-22T00:13:01.410Z,49.72
2017-06-22T00:14:03.289Z,49.15
2017-06-22T00:15:05.144Z,49.15
2017-06-22T00:16:19.328Z,48.59
2017-06-22T00:17:21.209Z,48.30
2017-06-22T00:18:23.091Z,48.02
2017-06-22T00:19:24.971Z,48.28
2017-06-22T00:20:26.791Z,48.11
2017-06-22T00:21:28.585Z,48.02
2017-06-22T00:22:30.469Z,47.89
2017-06-22T00:23:32.350Z,47.82
2017-06-22T00:24:34.227Z,47.92
2017-06-22T00:25:48.432Z,47.72
2017-06-22T00:26:50.304Z,47.41
2017-06-22T00:27:52.166Z,47.71
2017-06-22T00:28:54.047Z,47.61
2017-06-22T00:29:55.866Z,47.71
2017-06-22T00:30:57.663Z,47.89
2017-06-22T00:31:59.543Z,47.80
2017-06-22T00:33:01.431Z,47.99
2017-06-22T00:34:03.307Z,48.18
2017-06-22T00:35:17.460Z,48.47
2017-06-22T00:36:19.340Z,48.18
2017-06-22T00:37:21.211Z,48.38
2017-06-22T00:38:23.076Z,48.95
2017-06-22T00:39:24.900Z,49.05
2017-06-22T00:40:26.719Z,48.47
2017-06-22T00:41:28.598Z,48.47
2017-06-22T00:42:30.479Z,48.38
2017-06-22T00:43:32.336Z,48.18
2017-06-22T00:44:46.470Z,48.28
2017-06-22T00:45:48.331Z,48.38
2017-06-22T00:46:50.210Z,49.05
2017-06-22T00:47:52.070Z,48.93
2017-06-22T00:48:53.894Z,49.02
2017-06-22T00:49:55.714Z,49.21
2017-06-22T00:50:57.589Z,49.31
2017-06-22T00:51:59.473Z,49.21
2017-06-22T00:53:01.350Z,49.02
2017-06-22T00:54:15.476Z,49.21
2017-06-22T00:55:17.334Z,49.41
2017-06-22T00:56:19.199Z,49.60
2017-06-22T00:57:21.072Z,49.98
2017-06-22T00:58:22.850Z,49.69
2017-06-22T00:59:24.640Z,50.08
2017-06-22T01:00:26.508Z,50.17
2017-06-22T01:01:28.380Z,50.46
2017-06-22T01:02:30.233Z,50.56
2017-06-22T01:03:44.353Z,50.53
2017-06-22T01:04:46.244Z,50.73
2017-06-22T01:05:48.126Z,50.94
2017-06-22T01:06:50.008Z,50.82
2017-06-22T01:07:51.822Z,51.40
2017-06-22T01:08:53.619Z,51.20
2017-06-22T01:09:55.476Z,51.68
2017-06-22T01:10:57.338Z,51.59
2017-06-22T01:11:59.210Z,51.87
2017-06-22T01:13:13.387Z,51.97
2017-06-22T01:14:15.266Z,52.26
2017-06-22T01:15:17.150Z,52.45
2017-06-22T01:16:19.029Z,52.26
2017-06-22T01:17:20.855Z,52.64
2017-06-22T01:18:22.675Z,52.55
2017-06-22T01:19:24.545Z,52.64
2017-06-22T01:20:26.407Z,52.55
2017-06-22T01:21:28.267Z,52.55
2017-06-22T01:22:42.397Z,52.26
2017-06-22T01:23:44.257Z,52.36
2017-06-22T01:24:46.138Z,52.26
2017-06-22T01:25:48.014Z,52.16
2017-06-22T01:26:49.816Z,52.16
2017-06-22T01:27:51.613Z,52.26
2017-06-22T01:28:53.470Z,52.55
2017-06-22T01:29:55.324Z,52.45
2017-06-22T01:30:57.183Z,52.07
2017-06-22T01:32:11.371Z,52.45
2017-06-22T01:33:13.243Z,52.45
2017-06-22T01:34:15.103Z,52.36
2017-06-22T01:35:16.978Z,52.45
2017-06-22T01:36:18.771Z,52.36
2017-06-22T01:37:20.571Z,52.45
2017-06-22T01:38:22.428Z,52.55
2017-06-22T01:39:24.285Z,52.45
2017-06-22T01:40:26.145Z,52.81
2017-06-22T01:41:40.274Z,52.93
2017-06-22T01:42:42.136Z,52.55
2017-06-22T01:43:44.014Z,52.55
2017-06-22T01:44:45.875Z,52.26
2017-06-22T01:45:47.693Z,52.14
2017-06-22T01:46:49.493Z,52.26
2017-06-22T01:47:51.351Z,52.55
2017-06-22T01:48:53.207Z,52.42
2017-06-22T01:49:55.085Z,52.62
2017-06-22T01:51:09.235Z,53.28
2017-06-22T01:52:11.095Z,53.67
2017-06-22T01:53:12.956Z,53.58
2017-06-22T01:54:14.815Z,53.48
2017-06-22T01:55:16.613Z,53.09
2017-06-22T01:56:18.411Z,53.31
2017-06-22T01:57:20.293Z,53.28
2017-06-22T01:58:22.149Z,53.48
2017-06-22T01:59:24.008Z,53.96
2017-06-22T02:00:38.141Z,53.96
2017-06-22T02:01:40.002Z,53.86
2017-06-22T02:02:41.879Z,53.60
2017-06-22T02:03:43.739Z,53.31
2017-06-22T02:04:45.556Z,53.41
2017-06-22T02:05:47.355Z,52.93
2017-06-22T02:06:49.214Z,53.03
2017-06-22T02:07:51.071Z,52.93
2017-06-22T02:08:52.950Z,53.48
2017-06-22T02:10:07.079Z,53.09
2017-06-22T02:11:08.938Z,53.67
2017-06-22T02:12:10.817Z,53.67
2017-06-22T02:13:12.674Z,53.96
2017-06-22T02:14:14.492Z,54.63
2017-06-22T02:15:16.291Z,54.44
2017-06-22T02:16:18.151Z,54.72
2017-06-22T02:17:20.034Z,54.91
2017-06-22T02:18:21.913Z,54.53
2017-06-22T02:19:36.096Z,54.72
2017-06-22T02:20:37.954Z,54.53
2017-06-22T02:21:39.836Z,54.53
2017-06-22T02:22:41.695Z,54.82
2017-06-22T02:23:43.510Z,54.91
2017-06-22T02:24:45.315Z,54.91
2017-06-22T02:25:47.194Z,55.46
2017-06-22T02:26:49.072Z,55.21
2017-06-22T02:27:50.928Z,55.49
2017-06-22T02:29:05.064Z,55.11
2017-06-22T02:30:06.940Z,55.40
2017-06-22T02:31:08.821Z,55.49
2017-06-22T02:32:10.679Z,55.46
2017-06-22T02:33:12.497Z,55.56
2017-06-22T02:34:14.313Z,55.46
2017-06-22T02:35:16.192Z,55.75
2017-06-22T02:36:18.069Z,55.75
2017-06-22T02:37:19.930Z,56.13
2017-06-22T02:38:34.065Z,56.13
2017-06-22T02:39:35.941Z,56.32
2017-06-22T02:40:37.803Z,56.16
2017-06-22T02:41:39.683Z,56.16
2017-06-22T02:42:41.571Z,55.97
2017-06-22T02:43:43.427Z,56.26
2017-06-22T02:44:45.284Z,56.54
2017-06-22T02:45:47.149Z,56.16
2017-06-22T02:46:49.028Z,55.87
2017-06-22T02:48:03.208Z,55.68
2017-06-22T02:49:05.067Z,55.78
2017-06-22T02:50:06.928Z,56.16
2017-06-22T02:51:08.809Z,55.87
2017-06-22T02:52:10.625Z,56.16
2017-06-22T02:53:12.434Z,56.35
2017-06-22T02:54:14.312Z,55.87
2017-06-22T02:55:16.167Z,55.49
2017-06-22T02:56:18.031Z,55.30
2017-06-22T02:57:32.189Z,55.01
2017-06-22T02:58:34.071Z,55.68
2017-06-22T02:59:35.959Z,54.85
2017-06-22T03:00:37.834Z,54.94
2017-06-22T03:01:39.637Z,54.56
2017-06-22T03:02:41.461Z,54.85
2017-06-22T03:03:43.344Z,55.04
2017-06-22T03:04:45.203Z,54.75
2017-06-22T03:05:47.064Z,54.78
2017-06-22T03:07:01.244Z,53.91
2017-06-22T03:08:03.103Z,53.91
2017-06-22T03:09:04.966Z,53.53
2017-06-22T03:10:06.829Z,53.60
2017-06-22T03:11:08.651Z,53.89
2017-06-22T03:12:10.451Z,54.08
2017-06-22T03:13:12.313Z,54.01
2017-06-22T03:14:14.170Z,54.01
2017-06-22T03:15:16.034Z,53.53
2017-06-22T03:16:30.165Z,52.76
2017-06-22T03:17:32.026Z,52.57
2017-06-22T03:18:33.896Z,52.48
2017-06-22T03:19:35.761Z,51.90
2017-06-22T03:20:37.561Z,51.64
2017-06-22T03:21:39.375Z,51.35
2017-06-22T03:22:41.231Z,51.16
2017-06-22T03:23:43.120Z,51.35
2017-06-22T03:24:44.999Z,51.16
2017-06-22T03:25:59.141Z,50.80
2017-06-22T03:27:01.021Z,50.51
2017-06-22T03:28:02.906Z,50.32
2017-06-22T03:29:04.769Z,50.42
2017-06-22T03:30:06.587Z,49.74
2017-06-22T03:31:08.393Z,49.65
2017-06-22T03:32:10.253Z,49.29
2017-06-22T03:33:12.116Z,48.81
2017-06-22T03:34:14.000Z,48.43
2017-06-22T03:35:28.158Z,48.13
2017-06-22T03:36:30.018Z,48.52
2017-06-22T03:37:31.905Z,48.07
2017-06-22T03:38:33.786Z,47.77
2017-06-22T03:39:35.601Z,47.80
2017-06-22T03:40:37.427Z,47.41
2017-06-22T03:41:39.313Z,47.31
2017-06-22T03:42:41.192Z,46.84
2017-06-22T03:43:43.059Z,46.57
2017-06-22T03:44:57.197Z,46.09
2017-06-22T03:45:59.059Z,45.73
2017-06-22T03:47:00.930Z,45.05
2017-06-22T03:48:02.819Z,44.69
2017-06-22T03:49:04.644Z,43.63
2017-06-22T03:50:06.470Z,43.27
2017-06-22T03:51:08.339Z,42.79
2017-06-22T03:52:10.223Z,41.94
2017-06-22T03:53:12.091Z,41.19
2017-06-22T03:54:26.253Z,40.70
2017-06-22T03:55:28.132Z,40.05
2017-06-22T03:56:30.010Z,39.57
2017-06-22T03:57:31.884Z,38.89
2017-06-22T03:58:33.694Z,38.33
2017-06-22T03:59:35.524Z,37.75
2017-06-22T04:00:37.352Z,37.10
2017-06-22T04:01:39.155Z,37.10
2017-06-22T04:02:40.983Z,36.90
2017-06-22T04:03:55.123Z,36.34
2017-06-22T04:04:57.003Z,36.05
2017-06-22T04:05:58.874Z,36.16
2017-06-22T04:07:00.765Z,35.49
2017-06-22T04:08:02.721Z,35.88
2017-06-22T04:09:04.578Z,35.50
2017-06-22T04:10:06.467Z,35.02
2017-06-22T04:11:08.354Z,34.73
2017-06-22T04:12:10.243Z,34.75
2017-06-22T04:13:24.418Z,34.27
2017-06-22T04:14:26.308Z,34.47
2017-06-22T04:15:28.202Z,34.19
2017-06-22T04:16:30.090Z,33.70
2017-06-22T04:17:31.922Z,33.41
2017-06-22T04:18:33.754Z,33.23
2017-06-22T04:19:35.643Z,33.33
2017-06-22T04:20:37.512Z,33.23
2017-06-22T04:21:39.405Z,33.14
2017-06-22T04:22:53.571Z,32.75
2017-06-22T04:23:55.453Z,32.36
2017-06-22T04:24:57.327Z,32.28
2017-06-22T04:25:59.193Z,32.09
2017-06-22T04:27:01.021Z,31.50
2017-06-22T04:28:02.834Z,31.52
2017-06-22T04:29:04.725Z,31.13
2017-06-22T04:30:06.596Z,30.85
2017-06-22T04:31:08.488Z,30.85
2017-06-22T04:32:22.647Z,30.66
2017-06-22T04:33:24.518Z,30.38
2017-06-22T04:34:26.393Z,30.38
2017-06-22T04:35:28.306Z,30.58
2017-06-22T04:36:30.105Z,30.59
2017-06-22T04:37:31.937Z,30.40
2017-06-22T04:38:33.807Z,30.11
2017-06-22T04:39:35.701Z,29.93
2017-06-22T04:40:37.568Z,30.12
2017-06-22T04:41:51.714Z,29.94
2017-06-22T04:42:53.602Z,29.85
2017-06-22T04:43:55.469Z,29.85
2017-06-22T04:44:57.341Z,29.55
2017-06-22T04:45:59.167Z,29.57
2017-06-22T04:47:00.983Z,29.28
2017-06-22T04:48:02.854Z,29.38
2017-06-22T04:49:04.723Z,29.38
2017-06-22T04:50:06.572Z,28.90
2017-06-22T04:51:20.717Z,28.80
2017-06-22T04:52:22.586Z,28.70
2017-06-22T04:53:24.461Z,28.42
2017-06-22T04:54:26.348Z,28.80
2017-06-22T04:55:28.162Z,28.80
2017-06-22T04:56:29.994Z,28.92
2017-06-22T04:57:31.865Z,28.63
2017-06-22T04:58:33.756Z,28.82
2017-06-22T04:59:35.623Z,28.72
2017-06-22T05:00:49.770Z,28.53
2017-06-22T05:01:51.660Z,28.14
2017-06-22T05:02:53.531Z,28.22
2017-06-22T05:03:55.423Z,28.43
2017-06-22T05:04:57.236Z,28.22
2017-06-22T05:05:59.061Z,28.12
2017-06-22T05:07:00.936Z,27.94
2017-06-22T05:08:02.824Z,27.94
2017-06-22T05:09:04.694Z,28.04
2017-06-22T05:10:18.842Z,28.05
2017-06-22T05:11:20.731Z,28.05
2017-06-22T05:12:22.601Z,27.95
2017-06-22T05:13:24.472Z,27.97
2017-06-22T05:14:26.301Z,27.48
2017-06-22T05:15:28.112Z,27.78
2017-06-22T05:16:29.986Z,27.47
2017-06-22T05:17:31.877Z,27.37
2017-06-22T05:18:33.769Z,27.66
2017-06-22T05:19:47.931Z,27.66
2017-06-22T05:20:49.815Z,27.76
2017-06-22T05:21:51.686Z,27.37
2017-06-22T05:22:53.553Z,27.48
2017-06-22T05:23:55.383Z,27.68
2017-06-22T05:24:57.206Z,27.78
2017-06-22T05:25:59.074Z,27.68
2017-06-22T05:27:00.943Z,27.58
2017-06-22T05:28:02.817Z,27.68
2017-06-22T05:29:16.976Z,27.29
2017-06-22T05:30:18.845Z,27.39
2017-06-22T05:31:20.738Z,27.39
2017-06-22T05:32:22.629Z,27.48
2017-06-22T05:33:24.433Z,27.37
2017-06-22T05:34:26.245Z,27.18
2017-06-22T05:35:28.112Z,27.47
2017-06-22T05:36:29.983Z,27.37
2017-06-22T05:37:31.855Z,27.76
2017-06-22T05:38:45.998Z,27.86
2017-06-22T05:39:47.883Z,27.95
2017-06-22T05:40:49.751Z,27.95
2017-06-22T05:41:51.623Z,28.33
2017-06-22T05:42:53.450Z,28.82
2017-06-22T05:43:55.262Z,29.29
2017-06-22T05:44:57.154Z,30.25
2017-06-22T05:45:59.043Z,30.25
2017-06-22T05:47:00.912Z,30.82
2017-06-22T05:48:15.057Z,31.01
2017-06-22T05:49:16.942Z,31.58
2017-06-22T05:50:18.834Z,32.07
2017-06-22T05:51:20.704Z,32.05
2017-06-22T05:52:22.534Z,32.24
2017-06-22T05:53:24.337Z,32.24
2017-06-22T05:54:26.206Z,32.23
2017-06-22T05:55:28.073Z,32.91
2017-06-22T05:56:29.940Z,33.28
2017-06-22T05:57:44.091Z,33.57
2017-06-22T05:58:45.979Z,33.67
2017-06-22T05:59:47.872Z,33.67
2017-06-22T06:00:49.760Z,33.75
2017-06-22T06:01:51.569Z,34.22
2017-06-22T06:02:53.381Z,35.48
2017-06-22T06:03:55.266Z,35.57
2017-06-22T06:04:57.153Z,35.66
2017-06-22T06:05:59.041Z,35.56
2017-06-22T06:07:13.187Z,36.12
2017-06-22T06:08:15.073Z,36.68
2017-06-22T06:09:16.961Z,37.36
2017-06-22T06:10:18.830Z,38.02
2017-06-22T06:11:20.660Z,38.43
2017-06-22T06:12:22.487Z,38.43
2017-06-22T06:13:24.353Z,38.04
2017-06-22T06:14:26.248Z,37.75
2017-06-22T06:15:28.134Z,38.12
2017-06-22T06:16:42.280Z,39.09
2017-06-22T06:17:44.166Z,39.28
2017-06-22T06:18:46.028Z,39.28
2017-06-22T06:19:47.900Z,38.41
2017-06-22T06:20:49.703Z,38.21
2017-06-22T06:21:51.531Z,38.70
2017-06-22T06:22:53.399Z,38.99
2017-06-22T06:23:55.261Z,39.47
2017-06-22T06:24:57.135Z,39.95
2017-06-22T06:26:11.275Z,40.34
2017-06-22T06:27:13.142Z,40.34
2017-06-22T06:28:15.030Z,40.56
2017-06-22T06:29:16.897Z,40.75
2017-06-22T06:30:18.728Z,41.24
2017-06-22T06:31:20.530Z,40.75
2017-06-22T06:32:22.401Z,40.94
2017-06-22T06:33:24.271Z,40.84
2017-06-22T06:34:26.158Z,40.38
2017-06-22T06:35:40.323Z,40.17
2017-06-22T06:36:42.203Z,40.17
2017-06-22T06:37:44.074Z,40.36
2017-06-22T06:38:45.937Z,40.36
2017-06-22T06:39:47.739Z,40.46
2017-06-22T06:40:49.551Z,40.46
2017-06-22T06:41:51.417Z,40.46
2017-06-22T06:42:53.307Z,40.19
2017-06-22T06:43:55.197Z,40.48
2017-06-22T06:45:09.358Z,40.19
2017-06-22T06:46:11.241Z,40.38
2017-06-22T06:47:13.110Z,40.38
2017-06-22T06:48:14.974Z,40.58
2017-06-22T06:49:16.799Z,40.38
2017-06-22T06:50:18.607Z,40.40
2017-06-22T06:51:20.477Z,40.31
2017-06-22T06:52:22.347Z,40.28
2017-06-22T06:53:24.217Z,40.48
2017-06-22T06:54:38.381Z,40.89
2017-06-22T06:55:40.268Z,40.59
2017-06-22T06:56:42.140Z,40.40
2017-06-22T06:57:44.004Z,40.79
2017-06-22T06:58:45.834Z,40.40
2017-06-22T06:59:47.639Z,40.69
2017-06-22T07:00:49.511Z,40.61
2017-06-22T07:01:51.378Z,40.52
2017-06-22T07:02:53.271Z,40.52
2017-06-22T07:04:07.484Z,40.13
2017-06-22T07:05:09.371Z,40.13
2017-06-22T07:06:11.261Z,40.15
2017-06-22T07:07:13.146Z,41.02
2017-06-22T07:08:14.979Z,40.91
2017-06-22T07:09:16.785Z,41.30
2017-06-22T07:10:18.669Z,40.91
2017-06-22T07:11:20.539Z,41.30
2017-06-22T07:12:22.403Z,41.30
2017-06-22T07:13:36.542Z,42.14
2017-06-22T07:14:38.410Z,42.14
2017-06-22T07:15:40.284Z,42.14
2017-06-22T07:16:42.167Z,42.34
2017-06-22T07:17:43.982Z,42.82
2017-06-22T07:18:45.788Z,43.12
2017-06-22T07:19:47.676Z,42.92
2017-06-22T07:20:49.546Z,43.41
2017-06-22T07:21:51.436Z,43.58
2017-06-22T07:23:05.598Z,43.68
2017-06-22T07:24:07.469Z,43.60
2017-06-22T07:25:09.365Z,43.60
2017-06-22T07:26:11.250Z,43.50
2017-06-22T07:27:13.055Z,43.41
2017-06-22T07:28:14.871Z,43.70
2017-06-22T07:29:16.752Z,43.21
2017-06-22T07:30:18.625Z,43.38
2017-06-22T07:31:20.511Z,43.68
2017-06-22T07:32:34.657Z,43.96
2017-06-22T07:33:36.542Z,43.89
2017-06-22T07:34:38.428Z,43.79
2017-06-22T07:35:40.299Z,43.68
2017-06-22T07:36:42.109Z,44.27
2017-06-22T07:37:43.922Z,43.48
2017-06-22T07:38:45.801Z,43.70
2017-06-22T07:39:47.667Z,43.77
2017-06-22T07:40:49.534Z,44.45
2017-06-22T07:42:03.675Z,44.57
2017-06-22T07:43:05.537Z,43.89
2017-06-22T07:44:07.420Z,43.41
2017-06-22T07:45:09.321Z,42.55
2017-06-22T07:46:11.173Z,42.67
2017-06-22T07:47:13.012Z,42.48
2017-06-22T07:48:14.884Z,42.09
2017-06-22T07:49:16.768Z,41.99
2017-06-22T07:50:18.631Z,41.99
2017-06-22T07:51:32.776Z,42.55
2017-06-22T07:52:34.661Z,42.36
2017-06-22T07:53:36.525Z,42.46
2017-06-22T07:54:38.400Z,42.65
2017-06-22T07:55:40.228Z,42.26
2017-06-22T07:56:42.031Z,42.29
2017-06-22T07:57:43.904Z,42.19
2017-06-22T07:58:45.795Z,42.09
2017-06-22T07:59:47.689Z,41.72
2017-06-22T08:01:01.828Z,41.43
2017-06-22T08:02:03.718Z,41.53
2017-06-22T08:03:05.603Z,40.97
2017-06-22T08:04:07.470Z,40.87
2017-06-22T08:05:09.281Z,41.45
2017-06-22T08:06:11.086Z,40.66
2017-06-22T08:07:12.953Z,40.36
2017-06-22T08:08:14.820Z,41.05
2017-06-22T08:09:16.691Z,41.53
2017-06-22T08:10:30.833Z,41.14
2017-06-22T08:11:32.700Z,41.51
2017-06-22T08:12:34.591Z,41.41
2017-06-22T08:13:36.481Z,41.61
2017-06-22T08:14:38.312Z,41.31
2017-06-22T08:15:40.142Z,41.02
2017-06-22T08:16:42.011Z,41.31
2017-06-22T08:17:43.894Z,41.61
2017-06-22T08:18:45.762Z,41.31
2017-06-22T08:19:59.904Z,41.33
2017-06-22T08:21:01.789Z,41.33
2017-06-22T08:22:03.664Z,40.95
2017-06-22T08:23:05.555Z,40.19
2017-06-22T08:24:07.381Z,40.29
2017-06-22T08:25:09.188Z,39.70
2017-06-22T08:26:11.059Z,39.04
2017-06-22T08:27:12.950Z,38.95
2017-06-22T08:28:14.836Z,39.24
2017-06-22T08:29:28.984Z,39.72
2017-06-22T08:30:30.872Z,39.72
2017-06-22T08:31:32.765Z,39.53
2017-06-22T08:32:34.654Z,39.62
2017-06-22T08:33:36.481Z,38.95
2017-06-22T08:34:38.291Z,38.64
2017-06-22T08:35:40.161Z,39.01
2017-06-22T08:36:42.029Z,39.88
2017-06-22T08:37:43.948Z,39.88
2017-06-22T08:38:58.089Z,40.08
2017-06-22T08:39:59.979Z,40.29
2017-06-22T08:41:01.868Z,40.09
2017-06-22T08:42:03.758Z,39.70
2017-06-22T08:43:05.586Z,39.43
2017-06-22T08:44:07.399Z,39.14
2017-06-22T08:45:09.265Z,39.24
2017-06-22T08:46:11.128Z,39.24
2017-06-22T08:47:13.002Z,38.85
2017-06-22T08:48:27.145Z,38.56
2017-06-22T08:49:29.033Z,38.65
2017-06-22T08:50:30.929Z,38.17
2017-06-22T08:51:32.815Z,38.09
2017-06-22T08:52:34.626Z,37.90
2017-06-22T08:53:36.435Z,37.70
2017-06-22T08:54:38.325Z,37.51
2017-06-22T08:55:40.189Z,37.22
2017-06-22T08:56:42.076Z,37.22
2017-06-22T08:57:56.222Z,37.51
2017-06-22T08:58:58.086Z,37.22
2017-06-22T08:59:59.959Z,37.41
2017-06-22T09:01:01.851Z,37.41
2017-06-22T09:02:03.675Z,37.51
2017-06-22T09:03:05.483Z,37.41
2017-06-22T09:04:07.356Z,37.22
2017-06-22T09:05:09.224Z,37.30
2017-06-22T09:06:11.112Z,37.30
2017-06-22T09:07:25.277Z,37.78
2017-06-22T09:08:27.148Z,37.88
2017-06-22T09:09:29.034Z,37.98
2017-06-22T09:10:30.901Z,38.07
2017-06-22T09:11:32.730Z,38.07
2017-06-22T09:12:34.543Z,37.59
2017-06-22T09:13:36.410Z,37.51
2017-06-22T09:14:38.282Z,37.32
2017-06-22T09:15:40.166Z,37.51
2017-06-22T09:16:54.313Z,37.24
2017-06-22T09:17:56.201Z,36.85
2017-06-22T09:18:58.093Z,36.85
2017-06-22T09:19:59.981Z,36.55
2017-06-22T09:21:01.814Z,36.28
2017-06-22T09:22:03.623Z,35.99
2017-06-22T09:23:05.510Z,35.70
2017-06-22T09:24:07.382Z,35.89
2017-06-22T09:25:09.273Z,35.70
2017-06-22T09:26:23.441Z,35.50
2017-06-22T09:27:25.326Z,35.89
2017-06-22T09:28:27.196Z,35.50
2017-06-22T09:29:29.059Z,35.89
2017-06-22T09:30:30.863Z,35.50
2017-06-22T09:31:32.671Z,35.80
2017-06-22T09:32:34.540Z,35.50
2017-06-22T09:33:36.410Z,35.33
2017-06-22T09:34:38.300Z,35.81
2017-06-22T09:35:52.464Z,35.91
2017-06-22T09:36:54.352Z,35.41
2017-06-22T09:37:56.247Z,35.31
2017-06-22T09:38:58.118Z,35.31
2017-06-22T09:39:59.946Z,35.50
2017-06-22T09:41:01.753Z,35.89
2017-06-22T09:42:03.625Z,35.70
2017-06-22T09:43:05.518Z,35.60
2017-06-22T09:44:07.408Z,35.41
2017-06-22T09:45:21.575Z,35.80
2017-06-22T09:46:23.440Z,35.70
2017-06-22T09:47:25.317Z,35.70
2017-06-22T09:48:27.206Z,36.18
2017-06-22T09:49:29.034Z,35.80
2017-06-22T09:50:30.867Z,35.71
2017-06-22T09:51:32.761Z,35.61
2017-06-22T09:52:34.645Z,35.91
2017-06-22T09:53:36.521Z,35.71
2017-06-22T09:54:50.688Z,35.52
2017-06-22T09:55:52.575Z,35.15
2017-06-22T09:56:54.462Z,35.25
2017-06-22T09:57:56.333Z,34.66
2017-06-22T09:58:58.144Z,34.47
2017-06-22T09:59:59.974Z,35.15
2017-06-22T10:01:01.845Z,35.34
2017-06-22T10:02:03.737Z,34.76
2017-06-22T10:03:05.629Z,34.56
2017-06-22T10:04:19.794Z,34.37
2017-06-22T10:05:21.665Z,34.47
2017-06-22T10:06:23.549Z,34.74
2017-06-22T10:07:25.420Z,35.13
2017-06-22T10:08:27.252Z,35.71
2017-06-22T10:09:29.063Z,35.61
2017-06-22T10:10:30.956Z,35.71
2017-06-22T10:11:32.848Z,35.52
2017-06-22T10:12:34.738Z,35.63
2017-06-22T10:13:48.907Z,35.61
2017-06-22T10:14:50.772Z,35.83
2017-06-22T10:15:52.642Z,35.44
2017-06-22T10:16:54.520Z,35.46
2017-06-22T10:17:56.343Z,35.06
2017-06-22T10:18:58.158Z,35.05
2017-06-22T10:20:00.026Z,35.16
2017-06-22T10:21:01.890Z,35.46
2017-06-22T10:22:03.761Z,34.97
2017-06-22T10:23:17.902Z,35.26
2017-06-22T10:24:19.772Z,35.46
2017-06-22T10:25:21.640Z,35.25
2017-06-22T10:26:23.514Z,36.02
2017-06-22T10:27:25.341Z,36.61
2017-06-22T10:28:27.156Z,35.73
2017-06-22T10:29:29.047Z,35.63
2017-06-22T10:30:30.920Z,35.63
2017-06-22T10:31:32.807Z,35.55
2017-06-22T10:32:47.106Z,35.26
2017-06-22T10:33:48.991Z,35.18
2017-06-22T10:34:50.860Z,35.18
2017-06-22T10:35:52.754Z,34.79
2017-06-22T10:36:54.586Z,35.94
2017-06-22T10:37:56.411Z,36.06
2017-06-22T10:38:58.289Z,35.77
2017-06-22T10:40:00.183Z,35.86
2017-06-22T10:41:02.075Z,36.53
2017-06-22T10:42:16.216Z,36.65
2017-06-22T10:43:18.087Z,36.45
2017-06-22T10:44:19.977Z,35.55
2017-06-22T10:45:21.842Z,35.06
2017-06-22T10:46:23.658Z,35.65
2017-06-22T10:47:25.492Z,35.85
2017-06-22T10:48:27.385Z,35.57
2017-06-22T10:49:29.279Z,35.67
2017-06-22T10:50:31.146Z,35.86
2017-06-22T10:51:45.294Z,35.96
2017-06-22T10:52:47.182Z,36.16
2017-06-22T10:53:49.074Z,36.65
2017-06-22T10:54:50.948Z,36.65
2017-06-22T10:55:52.779Z,36.45
2017-06-22T10:56:54.586Z,36.45
2017-06-22T10:57:56.456Z,36.74
2017-06-22T10:58:58.317Z,36.06
2017-06-22T11:00:00.187Z,36.25
2017-06-22T11:01:14.327Z,35.86
2017-06-22T11:02:16.216Z,36.27
2017-06-22T11:03:18.109Z,35.67
2017-06-22T11:04:19.978Z,35.30
2017-06-22T11:05:21.788Z,35.30
2017-06-22T11:06:23.616Z,35.78
2017-06-22T11:07:25.489Z,35.59
2017-06-22T11:08:27.379Z,35.88
2017-06-22T11:09:29.253Z,35.78
2017-06-22T11:10:43.469Z,35.59
2017-06-22T11:11:45.359Z,35.78
2017-06-22T11:12:47.232Z,35.20
2017-06-22T11:13:49.128Z,35.49
2017-06-22T11:14:50.959Z,35.39
2017-06-22T11:15:52.784Z,35.39
2017-06-22T11:16:54.663Z,35.59
2017-06-22T11:17:56.551Z,35.98
2017-06-22T11:18:58.422Z,35.59
2017-06-22T11:20:12.586Z,35.22
2017-06-22T11:21:14.463Z,35.59
2017-06-22T11:22:16.357Z,35.78
2017-06-22T11:23:18.248Z,35.59
2017-06-22T11:24:20.057Z,35.39
2017-06-22T11:25:21.866Z,35.10
2017-06-22T11:26:23.737Z,35.30
2017-06-22T11:27:25.631Z,35.30
2017-06-22T11:28:27.521Z,35.59
2017-06-22T11:29:41.666Z,34.81
2017-06-22T11:30:43.556Z,35.12
2017-06-22T11:31:45.425Z,34.73
2017-06-22T11:32:47.315Z,34.73
2017-06-22T11:33:49.130Z,35.04
2017-06-22T11:34:50.956Z,35.12
2017-06-22T11:35:52.833Z,35.04
2017-06-22T11:36:54.721Z,34.14
2017-06-22T11:37:56.597Z,34.14
2017-06-22T11:39:10.759Z,34.24
2017-06-22T11:40:12.627Z,34.44
2017-06-22T11:41:14.495Z,34.44
2017-06-22T11:42:16.367Z,34.36
2017-06-22T11:43:18.201Z,34.26
2017-06-22T11:44:20.012Z,34.36
2017-06-22T11:45:21.881Z,34.45
2017-06-22T11:46:23.768Z,34.45
2017-06-22T11:47:25.639Z,34.45
2017-06-22T11:48:39.786Z,34.36
2017-06-22T11:49:41.677Z,34.34
2017-06-22T11:50:43.573Z,34.45
2017-06-22T11:51:45.462Z,34.36
2017-06-22T11:52:47.268Z,34.45
2017-06-22T11:53:49.083Z,34.57
2017-06-22T11:54:50.980Z,34.00
2017-06-22T11:55:52.855Z,33.43
2017-06-22T11:56:54.743Z,32.94
2017-06-22T11:58:08.918Z,32.17
2017-06-22T11:59:10.810Z,31.78
2017-06-22T12:00:12.703Z,31.31
2017-06-22T12:01:14.579Z,31.01
2017-06-22T12:02:16.414Z,30.35
2017-06-22T12:03:18.221Z,30.05
2017-06-22T12:04:20.094Z,30.64
2017-06-22T12:05:21.968Z,30.44
2017-06-22T12:06:23.860Z,30.62
2017-06-22T12:07:38.001Z,30.71
2017-06-22T12:08:39.878Z,31.08
2017-06-22T12:09:41.776Z,31.75
2017-06-22T12:10:43.647Z,32.92
2017-06-22T12:11:45.481Z,32.92
2017-06-22T12:12:47.315Z,32.35
2017-06-22T12:13:49.210Z,32.26
2017-06-22T12:14:51.104Z,32.07
2017-06-22T12:15:52.995Z,32.07
2017-06-22T12:17:07.144Z,32.07
2017-06-22T12:18:09.041Z,31.98
2017-06-22T12:19:10.934Z,31.99
2017-06-22T12:20:12.828Z,31.41
2017-06-22T12:21:14.636Z,31.21
2017-06-22T12:22:16.448Z,30.91
2017-06-22T12:23:18.319Z,30.82
2017-06-22T12:24:20.193Z,31.11
2017-06-22T12:25:22.087Z,30.62
2017-06-22T12:26:36.234Z,31.01
2017-06-22T12:27:38.202Z,30.91
2017-06-22T12:28:40.093Z,30.82
2017-06-22T12:29:41.966Z,31.10
2017-06-22T12:30:43.778Z,31.39
2017-06-22T12:31:45.611Z,31.39
2017-06-22T12:32:47.498Z,31.49
2017-06-22T12:33:49.386Z,31.59
2017-06-22T12:34:51.282Z,31.59
2017-06-22T12:36:05.453Z,31.49
2017-06-22T12:37:07.343Z,31.31
2017-06-22T12:38:09.215Z,31.23
2017-06-22T12:39:11.082Z,31.41
2017-06-22T12:40:12.893Z,31.23
2017-06-22T12:41:14.710Z,31.23
2017-06-22T12:42:16.606Z,30.74
2017-06-22T12:43:18.501Z,30.35
2017-06-22T12:44:20.403Z,30.36
2017-06-22T12:45:34.575Z,30.64
2017-06-22T12:46:36.463Z,30.46
2017-06-22T12:47:38.343Z,30.46
2017-06-22T12:48:40.231Z,30.46
2017-06-22T12:49:42.046Z,29.88
2017-06-22T12:50:43.860Z,29.30
2017-06-22T12:51:45.738Z,29.20
2017-06-22T12:52:47.631Z,29.30
2017-06-22T12:53:49.506Z,29.00
2017-06-22T12:55:03.674Z,29.69
2017-06-22T12:56:05.570Z,29.60
2017-06-22T12:57:07.468Z,29.11
2017-06-22T12:58:09.360Z,29.02
2017-06-22T12:59:11.179Z,28.82
2017-06-22T13:00:13.015Z,28.64
2017-06-22T13:01:14.888Z,28.83
2017-06-22T13:02:16.781Z,29.13
2017-06-22T13:03:18.654Z,28.54
2017-06-22T13:04:32.807Z,28.92
2017-06-22T13:05:34.701Z,28.43
2017-06-22T13:06:36.598Z,28.74
2017-06-22T13:07:38.473Z,28.93
2017-06-22T13:08:40.307Z,28.83
2017-06-22T13:09:42.123Z,28.55
2017-06-22T13:10:43.996Z,28.36
2017-06-22T13:11:45.872Z,27.88
2017-06-22T13:12:47.769Z,27.78
2017-06-22T13:14:01.943Z,27.50
2017-06-22T13:15:03.833Z,27.31
2017-06-22T13:16:05.779Z,26.92
2017-06-22T13:17:07.658Z,26.63
2017-06-22T13:18:09.475Z,26.34
2017-06-22T13:19:11.314Z,25.76
2017-06-22T13:20:13.309Z,25.76
2017-06-22T13:21:15.187Z,26.35
2017-06-22T13:22:17.153Z,25.46
2017-06-22T13:23:31.307Z,25.35
2017-06-22T13:24:33.206Z,25.83
2017-06-22T13:25:35.085Z,25.74
2017-06-22T13:26:36.987Z,25.84
2017-06-22T13:27:38.822Z,25.74
2017-06-22T13:28:40.635Z,25.84
2017-06-22T13:29:42.515Z,26.32
2017-06-22T13:30:44.559Z,26.42
2017-06-22T13:31:46.587Z,26.52
2017-06-22T13:33:00.895Z,26.62
2017-06-22T13:34:02.877Z,26.12